sensor_id;sensor_type;location;lat;lon;timestamp;P1;durP1;ratioP1;P2;durP2;ratioP2
33076;SDS011;38790;51.964;5.924;2022-09-27T00:02:17;17.23;;;2.47;;
33076;SDS011;38790;51.964;5.924;2022-09-27T00:04:43;20.60;;;2.83;;
33076;SDS011;38790;51.964;5.924;2022-09-27T00:07:09;7.90;;;2.25;;
33076;SDS011;38790;51.964;5.924;2022-09-27T00:09:36;9.73;;;2.75;;
33076;SDS011;38790;51.964;5.924;2022-09-27T00:12:02;10.52;;;2.28;;
33076;SDS011;38790;51.964;5.924;2022-09-27T00:14:31;10.88;;;2.38;;
33076;SDS011;38790;51.964;5.924;2022-09-27T00:16:57;10.57;;;1.98;;
33076;SDS011;38790;51.964;5.924;2022-09-27T00:19:23;10.02;;;1.90;;
33076;SDS011;38790;51.964;5.924;2022-09-27T00:21:50;11.00;;;2.20;;
33076;SDS011;38790;51.964;5.924;2022-09-27T00:24:17;10.43;;;1.95;;
33076;SDS011;38790;51.964;5.924;2022-09-27T00:26:45;6.20;;;1.50;;
33076;SDS011;38790;51.964;5.924;2022-09-27T00:29:12;9.90;;;1.73;;
33076;SDS011;38790;51.964;5.924;2022-09-27T00:31:39;9.10;;;2.20;;
33076;SDS011;38790;51.964;5.924;2022-09-27T00:34:06;6.32;;;1.45;;
33076;SDS011;38790;51.964;5.924;2022-09-27T00:36:36;15.07;;;2.38;;
33076;SDS011;38790;51.964;5.924;2022-09-27T00:39:02;11.23;;;1.83;;
33076;SDS011;38790;51.964;5.924;2022-09-27T00:41:29;9.98;;;1.55;;
33076;SDS011;38790;51.964;5.924;2022-09-27T00:43:58;9.15;;;1.65;;
33076;SDS011;38790;51.964;5.924;2022-09-27T00:46:46;6.88;;;1.70;;
33076;SDS011;38790;51.964;5.924;2022-09-27T00:49:21;8.00;;;1.52;;
33076;SDS011;38790;51.964;5.924;2022-09-27T00:51:56;8.55;;;1.75;;
33076;SDS011;38790;51.964;5.924;2022-09-27T00:54:35;8.70;;;1.85;;
33076;SDS011;38790;51.964;5.924;2022-09-27T00:57:05;6.00;;;2.25;;
33076;SDS011;38790;51.964;5.924;2022-09-27T00:59:35;8.30;;;1.75;;
33076;SDS011;38790;51.964;5.924;2022-09-27T01:02:06;5.38;;;1.55;;
33076;SDS011;38790;51.964;5.924;2022-09-27T01:04:33;14.07;;;1.85;;
33076;SDS011;38790;51.964;5.924;2022-09-27T01:07:01;5.35;;;1.80;;
33076;SDS011;38790;51.964;5.924;2022-09-27T01:09:27;10.35;;;1.83;;
33076;SDS011;38790;51.964;5.924;2022-09-27T01:20:10;12.02;;;1.20;;
33076;SDS011;38790;51.964;5.924;2022-09-27T01:25:45;13.68;;;2.05;;
33076;SDS011;38790;51.964;5.924;2022-09-27T01:44:56;4.30;;;1.20;;
33076;SDS011;38790;51.964;5.924;2022-09-27T01:47:52;11.40;;;1.38;;
33076;SDS011;38790;51.964;5.924;2022-09-27T01:50:44;7.00;;;1.98;;
33076;SDS011;38790;51.964;5.924;2022-09-27T01:55:41;4.20;;;1.17;;
33076;SDS011;38790;51.964;5.924;2022-09-27T01:58:11;8.25;;;1.42;;
33076;SDS011;38790;51.964;5.924;2022-09-27T02:00:43;10.20;;;1.50;;
33076;SDS011;38790;51.964;5.924;2022-09-27T02:03:13;9.25;;;1.30;;
33076;SDS011;38790;51.964;5.924;2022-09-27T02:05:46;12.70;;;1.30;;
33076;SDS011;38790;51.964;5.924;2022-09-27T02:08:20;7.70;;;1.42;;
33076;SDS011;38790;51.964;5.924;2022-09-27T02:10:47;8.90;;;1.60;;
33076;SDS011;38790;51.964;5.924;2022-09-27T02:13:28;8.07;;;1.83;;
33076;SDS011;38790;51.964;5.924;2022-09-27T02:16:20;16.80;;;1.27;;
33076;SDS011;38790;51.964;5.924;2022-09-27T02:18:57;10.07;;;1.40;;
33076;SDS011;38790;51.964;5.924;2022-09-27T02:21:41;5.38;;;1.23;;
33076;SDS011;38790;51.964;5.924;2022-09-27T02:24:18;6.57;;;1.10;;
33076;SDS011;38790;51.964;5.924;2022-09-27T02:26:50;7.43;;;1.50;;
33076;SDS011;38790;51.964;5.924;2022-09-27T02:29:33;9.27;;;1.40;;
33076;SDS011;38790;51.964;5.924;2022-09-27T02:32:05;19.00;;;2.03;;
33076;SDS011;38790;51.964;5.924;2022-09-27T02:34:31;15.40;;;1.90;;
33076;SDS011;38790;51.964;5.924;2022-09-27T02:37:00;10.77;;;0.98;;
33076;SDS011;38790;51.964;5.924;2022-09-27T02:39:26;10.70;;;1.27;;
33076;SDS011;38790;51.964;5.924;2022-09-27T02:41:53;3.28;;;0.85;;
33076;SDS011;38790;51.964;5.924;2022-09-27T02:44:22;8.30;;;1.23;;
33076;SDS011;38790;51.964;5.924;2022-09-27T02:52:33;4.40;;;1.60;;
33076;SDS011;38790;51.964;5.924;2022-09-27T03:00:25;10.00;;;2.00;;
33076;SDS011;38790;51.964;5.924;2022-09-27T03:05:38;3.70;;;1.30;;
33076;SDS011;38790;51.964;5.924;2022-09-27T03:08:10;13.93;;;1.67;;
33076;SDS011;38790;51.964;5.924;2022-09-27T03:10:37;5.18;;;1.38;;
33076;SDS011;38790;51.964;5.924;2022-09-27T03:13:03;11.13;;;1.38;;
33076;SDS011;38790;51.964;5.924;2022-09-27T03:15:31;5.35;;;1.35;;
33076;SDS011;38790;51.964;5.924;2022-09-27T03:17:57;8.40;;;1.40;;
33076;SDS011;38790;51.964;5.924;2022-09-27T03:20:23;15.73;;;1.80;;
33076;SDS011;38790;51.964;5.924;2022-09-27T03:22:49;6.22;;;1.60;;
33076;SDS011;38790;51.964;5.924;2022-09-27T03:25:15;12.27;;;1.60;;
33076;SDS011;38790;51.964;5.924;2022-09-27T03:27:42;9.70;;;1.60;;
33076;SDS011;38790;51.964;5.924;2022-09-27T03:30:09;7.15;;;1.50;;
33076;SDS011;38790;51.964;5.924;2022-09-27T03:32:40;21.13;;;1.88;;
33076;SDS011;38790;51.964;5.924;2022-09-27T03:35:07;6.70;;;1.70;;
33076;SDS011;38790;51.964;5.924;2022-09-27T03:37:33;11.77;;;1.60;;
33076;SDS011;38790;51.964;5.924;2022-09-27T03:40:00;20.80;;;1.98;;
33076;SDS011;38790;51.964;5.924;2022-09-27T03:42:26;11.45;;;1.55;;
33076;SDS011;38790;51.964;5.924;2022-09-27T03:44:52;18.98;;;1.92;;
33076;SDS011;38790;51.964;5.924;2022-09-27T03:47:18;14.20;;;1.98;;
33076;SDS011;38790;51.964;5.924;2022-09-27T03:49:44;6.38;;;1.38;;
33076;SDS011;38790;51.964;5.924;2022-09-27T03:52:10;13.70;;;1.80;;
33076;SDS011;38790;51.964;5.924;2022-09-27T03:54:37;6.43;;;1.75;;
33076;SDS011;38790;51.964;5.924;2022-09-27T03:57:03;7.55;;;1.88;;
33076;SDS011;38790;51.964;5.924;2022-09-27T03:59:30;9.15;;;2.08;;
33076;SDS011;38790;51.964;5.924;2022-09-27T04:01:56;11.75;;;1.60;;
33076;SDS011;38790;51.964;5.924;2022-09-27T04:04:22;24.80;;;2.55;;
33076;SDS011;38790;51.964;5.924;2022-09-27T04:06:48;8.73;;;1.75;;
33076;SDS011;38790;51.964;5.924;2022-09-27T04:09:14;21.25;;;2.65;;
33076;SDS011;38790;51.964;5.924;2022-09-27T04:11:40;12.13;;;2.40;;
33076;SDS011;38790;51.964;5.924;2022-09-27T04:14:06;18.55;;;2.88;;
33076;SDS011;38790;51.964;5.924;2022-09-27T04:16:33;18.25;;;2.47;;
33076;SDS011;38790;51.964;5.924;2022-09-27T04:18:59;16.15;;;2.70;;
33076;SDS011;38790;51.964;5.924;2022-09-27T04:21:26;14.68;;;2.63;;
33076;SDS011;38790;51.964;5.924;2022-09-27T04:23:53;15.27;;;2.53;;
33076;SDS011;38790;51.964;5.924;2022-09-27T04:26:19;15.05;;;2.42;;
33076;SDS011;38790;51.964;5.924;2022-09-27T04:28:45;9.05;;;2.17;;
33076;SDS011;38790;51.964;5.924;2022-09-27T04:31:11;12.90;;;2.20;;
33076;SDS011;38790;51.964;5.924;2022-09-27T04:33:37;17.13;;;2.53;;
33076;SDS011;38790;51.964;5.924;2022-09-27T04:36:04;8.95;;;2.08;;
33076;SDS011;38790;51.964;5.924;2022-09-27T04:38:49;16.08;;;2.50;;
33076;SDS011;38790;51.964;5.924;2022-09-27T04:41:15;14.90;;;2.75;;
33076;SDS011;38790;51.964;5.924;2022-09-27T04:43:41;13.63;;;2.10;;
33076;SDS011;38790;51.964;5.924;2022-09-27T04:46:07;16.08;;;2.28;;
33076;SDS011;38790;51.964;5.924;2022-09-27T04:48:33;15.25;;;2.22;;
33076;SDS011;38790;51.964;5.924;2022-09-27T04:51:00;16.90;;;3.13;;
33076;SDS011;38790;51.964;5.924;2022-09-27T04:53:27;20.27;;;2.72;;
33076;SDS011;38790;51.964;5.924;2022-09-27T04:55:56;16.50;;;2.30;;
33076;SDS011;38790;51.964;5.924;2022-09-27T04:58:24;18.45;;;2.65;;
33076;SDS011;38790;51.964;5.924;2022-09-27T05:00:50;18.25;;;2.70;;
33076;SDS011;38790;51.964;5.924;2022-09-27T05:03:17;20.67;;;2.50;;
33076;SDS011;38790;51.964;5.924;2022-09-27T05:05:44;14.60;;;2.40;;
33076;SDS011;38790;51.964;5.924;2022-09-27T05:08:10;18.33;;;2.42;;
33076;SDS011;38790;51.964;5.924;2022-09-27T05:10:36;15.18;;;2.53;;
33076;SDS011;38790;51.964;5.924;2022-09-27T05:13:02;16.55;;;2.15;;
33076;SDS011;38790;51.964;5.924;2022-09-27T05:15:28;15.32;;;2.80;;
33076;SDS011;38790;51.964;5.924;2022-09-27T05:17:55;9.35;;;2.00;;
33076;SDS011;38790;51.964;5.924;2022-09-27T05:20:22;24.05;;;2.65;;
33076;SDS011;38790;51.964;5.924;2022-09-27T05:22:50;18.40;;;2.65;;
33076;SDS011;38790;51.964;5.924;2022-09-27T05:25:17;10.32;;;2.20;;
33076;SDS011;38790;51.964;5.924;2022-09-27T05:27:43;13.10;;;2.33;;
33076;SDS011;38790;51.964;5.924;2022-09-27T05:30:10;14.52;;;2.10;;
33076;SDS011;38790;51.964;5.924;2022-09-27T05:32:38;12.68;;;2.22;;
33076;SDS011;38790;51.964;5.924;2022-09-27T05:35:08;9.93;;;1.88;;
33076;SDS011;38790;51.964;5.924;2022-09-27T05:37:34;8.65;;;1.50;;
33076;SDS011;38790;51.964;5.924;2022-09-27T05:40:01;8.65;;;1.95;;
33076;SDS011;38790;51.964;5.924;2022-09-27T05:42:27;15.50;;;1.92;;
33076;SDS011;38790;51.964;5.924;2022-09-27T05:44:53;9.75;;;2.33;;
33076;SDS011;38790;51.964;5.924;2022-09-27T05:47:19;8.40;;;1.92;;
33076;SDS011;38790;51.964;5.924;2022-09-27T05:49:45;7.53;;;1.70;;
33076;SDS011;38790;51.964;5.924;2022-09-27T05:52:11;11.63;;;2.30;;
33076;SDS011;38790;51.964;5.924;2022-09-27T05:54:38;8.75;;;1.70;;
33076;SDS011;38790;51.964;5.924;2022-09-27T05:57:04;4.20;;;1.40;;
33076;SDS011;38790;51.964;5.924;2022-09-27T05:59:32;4.38;;;1.30;;
33076;SDS011;38790;51.964;5.924;2022-09-27T06:01:58;12.80;;;2.13;;
33076;SDS011;38790;51.964;5.924;2022-09-27T06:04:24;5.57;;;1.55;;
33076;SDS011;38790;51.964;5.924;2022-09-27T06:06:50;9.23;;;2.20;;
33076;SDS011;38790;51.964;5.924;2022-09-27T06:09:16;5.82;;;1.45;;
33076;SDS011;38790;51.964;5.924;2022-09-27T06:11:43;6.05;;;1.95;;
33076;SDS011;38790;51.964;5.924;2022-09-27T06:14:12;6.32;;;1.55;;
33076;SDS011;38790;51.964;5.924;2022-09-27T06:16:38;5.50;;;1.52;;
33076;SDS011;38790;51.964;5.924;2022-09-27T06:19:05;5.22;;;1.50;;
33076;SDS011;38790;51.964;5.924;2022-09-27T06:21:31;5.68;;;1.77;;
33076;SDS011;38790;51.964;5.924;2022-09-27T06:23:57;7.72;;;1.88;;
33076;SDS011;38790;51.964;5.924;2022-09-27T06:26:24;9.82;;;1.55;;
33076;SDS011;38790;51.964;5.924;2022-09-27T06:28:54;2.80;;;1.20;;
33076;SDS011;38790;51.964;5.924;2022-09-27T06:31:21;5.85;;;1.67;;
33076;SDS011;38790;51.964;5.924;2022-09-27T06:33:50;5.68;;;1.40;;
33076;SDS011;38790;51.964;5.924;2022-09-27T06:36:16;8.50;;;1.50;;
33076;SDS011;38790;51.964;5.924;2022-09-27T06:38:43;7.07;;;1.88;;
33076;SDS011;38790;51.964;5.924;2022-09-27T06:41:11;7.30;;;1.33;;
33076;SDS011;38790;51.964;5.924;2022-09-27T06:43:39;5.32;;;1.65;;
33076;SDS011;38790;51.964;5.924;2022-09-27T06:46:05;5.30;;;1.40;;
33076;SDS011;38790;51.964;5.924;2022-09-27T06:48:32;2.05;;;1.10;;
33076;SDS011;38790;51.964;5.924;2022-09-27T06:51:02;4.97;;;1.33;;
33076;SDS011;38790;51.964;5.924;2022-09-27T06:53:28;5.85;;;1.45;;
33076;SDS011;38790;51.964;5.924;2022-09-27T06:55:58;7.95;;;1.40;;
33076;SDS011;38790;51.964;5.924;2022-09-27T06:58:28;8.05;;;1.60;;
33076;SDS011;38790;51.964;5.924;2022-09-27T07:01:14;5.93;;;2.22;;
33076;SDS011;38790;51.964;5.924;2022-09-27T07:03:42;8.32;;;1.30;;
33076;SDS011;38790;51.964;5.924;2022-09-27T07:06:16;5.45;;;1.50;;
33076;SDS011;38790;51.964;5.924;2022-09-27T07:08:47;8.25;;;1.45;;
33076;SDS011;38790;51.964;5.924;2022-09-27T07:11:15;8.35;;;1.45;;
33076;SDS011;38790;51.964;5.924;2022-09-27T07:13:41;8.68;;;1.58;;
33076;SDS011;38790;51.964;5.924;2022-09-27T07:16:11;4.90;;;1.20;;
33076;SDS011;38790;51.964;5.924;2022-09-27T07:18:39;5.53;;;1.55;;
33076;SDS011;38790;51.964;5.924;2022-09-27T07:21:05;7.63;;;1.33;;
33076;SDS011;38790;51.964;5.924;2022-09-27T07:23:33;8.38;;;1.42;;
33076;SDS011;38790;51.964;5.924;2022-09-27T07:26:01;10.00;;;1.40;;
33076;SDS011;38790;51.964;5.924;2022-09-27T07:28:31;6.20;;;1.42;;
33076;SDS011;38790;51.964;5.924;2022-09-27T07:30:58;6.63;;;1.75;;
33076;SDS011;38790;51.964;5.924;2022-09-27T07:33:26;7.93;;;1.73;;
33076;SDS011;38790;51.964;5.924;2022-09-27T07:35:53;5.93;;;1.60;;
33076;SDS011;38790;51.964;5.924;2022-09-27T07:38:19;11.25;;;1.70;;
33076;SDS011;38790;51.964;5.924;2022-09-27T07:40:45;5.43;;;1.88;;
33076;SDS011;38790;51.964;5.924;2022-09-27T07:43:11;11.93;;;1.83;;
33076;SDS011;38790;51.964;5.924;2022-09-27T07:45:37;5.40;;;1.77;;
33076;SDS011;38790;51.964;5.924;2022-09-27T07:48:07;5.05;;;1.90;;
33076;SDS011;38790;51.964;5.924;2022-09-27T07:50:37;11.00;;;2.13;;
33076;SDS011;38790;51.964;5.924;2022-09-27T07:53:03;8.05;;;1.95;;
33076;SDS011;38790;51.964;5.924;2022-09-27T07:55:30;6.55;;;1.75;;
33076;SDS011;38790;51.964;5.924;2022-09-27T07:58:03;6.13;;;1.92;;
33076;SDS011;38790;51.964;5.924;2022-09-27T08:00:31;6.72;;;1.60;;
33076;SDS011;38790;51.964;5.924;2022-09-27T08:02:58;6.40;;;1.58;;
33076;SDS011;38790;51.964;5.924;2022-09-27T08:05:32;5.10;;;1.50;;
33076;SDS011;38790;51.964;5.924;2022-09-27T08:07:59;5.47;;;1.35;;
33076;SDS011;38790;51.964;5.924;2022-09-27T08:10:26;8.55;;;1.75;;
33076;SDS011;38790;51.964;5.924;2022-09-27T08:12:56;6.47;;;1.10;;
33076;SDS011;38790;51.964;5.924;2022-09-27T08:15:24;5.05;;;1.38;;
33076;SDS011;38790;51.964;5.924;2022-09-27T08:17:50;9.13;;;1.63;;
33076;SDS011;38790;51.964;5.924;2022-09-27T08:20:16;4.80;;;1.25;;
33076;SDS011;38790;51.964;5.924;2022-09-27T08:22:42;6.05;;;1.55;;
33076;SDS011;38790;51.964;5.924;2022-09-27T08:25:08;5.72;;;1.42;;
33076;SDS011;38790;51.964;5.924;2022-09-27T08:27:35;9.90;;;1.90;;
33076;SDS011;38790;51.964;5.924;2022-09-27T08:30:01;7.20;;;2.25;;
33076;SDS011;38790;51.964;5.924;2022-09-27T08:32:28;10.65;;;1.80;;
33076;SDS011;38790;51.964;5.924;2022-09-27T08:34:55;4.85;;;1.88;;
33076;SDS011;38790;51.964;5.924;2022-09-27T08:37:21;4.15;;;1.65;;
33076;SDS011;38790;51.964;5.924;2022-09-27T08:39:47;2.63;;;1.42;;
33076;SDS011;38790;51.964;5.924;2022-09-27T08:42:18;6.07;;;2.08;;
33076;SDS011;38790;51.964;5.924;2022-09-27T08:45:07;6.53;;;1.75;;
33076;SDS011;38790;51.964;5.924;2022-09-27T08:47:46;6.35;;;1.90;;
33076;SDS011;38790;51.964;5.924;2022-09-27T08:50:36;6.22;;;1.85;;
33076;SDS011;38790;51.964;5.924;2022-09-27T08:55:40;11.27;;;2.45;;
33076;SDS011;38790;51.964;5.924;2022-09-27T08:58:14;7.80;;;2.00;;
33076;SDS011;38790;51.964;5.924;2022-09-27T09:01:09;11.27;;;3.90;;
33076;SDS011;38790;51.964;5.924;2022-09-27T09:03:45;7.63;;;2.78;;
33076;SDS011;38790;51.964;5.924;2022-09-27T09:09:25;8.20;;;2.88;;
33076;SDS011;38790;51.964;5.924;2022-09-27T09:17:54;2.85;;;1.77;;
33076;SDS011;38790;51.964;5.924;2022-09-27T09:23:27;4.38;;;1.60;;
33076;SDS011;38790;51.964;5.924;2022-09-27T09:26:14;3.58;;;1.58;;
33076;SDS011;38790;51.964;5.924;2022-09-27T09:28:52;2.03;;;1.20;;
33076;SDS011;38790;51.964;5.924;2022-09-27T09:31:49;1.73;;;1.20;;
33076;SDS011;38790;51.964;5.924;2022-09-27T09:34:28;5.80;;;1.90;;
33076;SDS011;38790;51.964;5.924;2022-09-27T09:37:01;5.32;;;1.70;;
33076;SDS011;38790;51.964;5.924;2022-09-27T09:39:44;3.08;;;1.75;;
33076;SDS011;38790;51.964;5.924;2022-09-27T09:44:45;11.35;;;2.45;;
33076;SDS011;38790;51.964;5.924;2022-09-27T09:47:37;6.80;;;2.85;;
33076;SDS011;38790;51.964;5.924;2022-09-27T09:50:28;4.55;;;2.35;;
33076;SDS011;38790;51.964;5.924;2022-09-27T09:53:40;4.05;;;2.28;;
33076;SDS011;38790;51.964;5.924;2022-09-27T09:55:51;4.97;;;2.60;;
33076;SDS011;38790;51.964;5.924;2022-09-27T10:01:24;11.95;;;2.30;;
33076;SDS011;38790;51.964;5.924;2022-09-27T10:03:53;8.30;;;1.88;;
33076;SDS011;38790;51.964;5.924;2022-09-27T10:06:21;7.22;;;1.90;;
33076;SDS011;38790;51.964;5.924;2022-09-27T10:08:50;11.20;;;2.63;;
33076;SDS011;38790;51.964;5.924;2022-09-27T10:11:24;5.57;;;1.60;;
33076;SDS011;38790;51.964;5.924;2022-09-27T10:13:52;5.57;;;1.40;;
33076;SDS011;38790;51.964;5.924;2022-09-27T10:16:21;4.47;;;1.50;;
33076;SDS011;38790;51.964;5.924;2022-09-27T10:18:48;5.05;;;1.50;;
33076;SDS011;38790;51.964;5.924;2022-09-27T10:21:21;7.55;;;1.30;;
33076;SDS011;38790;51.964;5.924;2022-09-27T10:26:40;7.80;;;1.40;;
33076;SDS011;38790;51.964;5.924;2022-09-27T10:29:22;6.72;;;1.25;;
33076;SDS011;38790;51.964;5.924;2022-09-27T10:31:56;12.15;;;1.70;;
33076;SDS011;38790;51.964;5.924;2022-09-27T10:34:30;5.10;;;1.20;;
33076;SDS011;38790;51.964;5.924;2022-09-27T10:39:37;8.15;;;1.45;;
33076;SDS011;38790;51.964;5.924;2022-09-27T10:42:22;7.78;;;1.17;;
33076;SDS011;38790;51.964;5.924;2022-09-27T10:45:42;7.05;;;1.38;;
33076;SDS011;38790;51.964;5.924;2022-09-27T10:47:48;6.43;;;1.23;;
33076;SDS011;38790;51.964;5.924;2022-09-27T10:50:16;4.40;;;1.00;;
33076;SDS011;38790;51.964;5.924;2022-09-27T10:52:47;3.80;;;1.27;;
33076;SDS011;38790;51.964;5.924;2022-09-27T10:55:19;3.35;;;1.05;;
33076;SDS011;38790;51.964;5.924;2022-09-27T10:57:48;3.42;;;0.95;;
33076;SDS011;38790;51.964;5.924;2022-09-27T11:00:24;3.85;;;0.93;;
33076;SDS011;38790;51.964;5.924;2022-09-27T11:02:56;4.03;;;1.02;;
33076;SDS011;38790;51.964;5.924;2022-09-27T11:05:39;2.85;;;1.02;;
33076;SDS011;38790;51.964;5.924;2022-09-27T11:10:44;2.22;;;0.93;;
33076;SDS011;38790;51.964;5.924;2022-09-27T11:13:31;4.80;;;1.25;;
33076;SDS011;38790;51.964;5.924;2022-09-27T11:16:19;3.75;;;0.90;;
33076;SDS011;38790;51.964;5.924;2022-09-27T11:19:09;5.13;;;1.20;;
33076;SDS011;38790;51.964;5.924;2022-09-27T11:21:51;5.65;;;1.05;;
33076;SDS011;38790;51.964;5.924;2022-09-27T11:30:10;4.28;;;1.17;;
33076;SDS011;38790;51.964;5.924;2022-09-27T11:39:25;3.92;;;1.30;;
33076;SDS011;38790;51.964;5.924;2022-09-27T11:42:24;4.13;;;0.93;;
33076;SDS011;38790;51.964;5.924;2022-09-27T11:53:31;4.22;;;0.77;;
33076;SDS011;38790;51.964;5.924;2022-09-27T11:56:05;5.13;;;1.23;;
33076;SDS011;38790;51.964;5.924;2022-09-27T11:59:02;2.30;;;0.80;;
33076;SDS011;38790;51.964;5.924;2022-09-27T12:01:53;5.20;;;0.90;;
33076;SDS011;38790;51.964;5.924;2022-09-27T12:10:08;1.88;;;0.93;;
33076;SDS011;38790;51.964;5.924;2022-09-27T12:12:38;3.83;;;1.00;;
33076;SDS011;38790;51.964;5.924;2022-09-27T12:15:19;2.33;;;1.10;;
33076;SDS011;38790;51.964;5.924;2022-09-27T12:17:49;3.40;;;1.00;;
33076;SDS011;38790;51.964;5.924;2022-09-27T12:20:21;4.18;;;1.23;;
33076;SDS011;38790;51.964;5.924;2022-09-27T12:23:01;8.50;;;1.38;;
33076;SDS011;38790;51.964;5.924;2022-09-27T12:25:36;3.17;;;1.02;;
33076;SDS011;38790;51.964;5.924;2022-09-27T12:28:09;1.45;;;0.65;;
33076;SDS011;38790;51.964;5.924;2022-09-27T12:30:43;0.77;;;0.60;;
33076;SDS011;38790;51.964;5.924;2022-09-27T12:33:25;2.97;;;0.73;;
33076;SDS011;38790;51.964;5.924;2022-09-27T12:35:58;0.70;;;0.50;;
33076;SDS011;38790;51.964;5.924;2022-09-27T12:38:36;0.70;;;0.60;;
33076;SDS011;38790;51.964;5.924;2022-09-27T12:41:05;2.85;;;0.80;;
33076;SDS011;38790;51.964;5.924;2022-09-27T12:43:34;1.10;;;0.50;;
33076;SDS011;38790;51.964;5.924;2022-09-27T12:51:25;2.53;;;0.80;;
33076;SDS011;38790;51.964;5.924;2022-09-27T12:54:19;2.30;;;0.95;;
33076;SDS011;38790;51.964;5.924;2022-09-27T13:13:10;1.58;;;0.60;;
33076;SDS011;38790;51.964;5.924;2022-09-27T13:15:38;1.40;;;0.60;;
33076;SDS011;38790;51.964;5.924;2022-09-27T13:18:27;2.08;;;0.73;;
33076;SDS011;38790;51.964;5.924;2022-09-27T13:32:38;4.07;;;1.05;;
33076;SDS011;38790;51.964;5.924;2022-09-27T13:35:24;6.18;;;1.10;;
33076;SDS011;38790;51.964;5.924;2022-09-27T13:37:54;1.92;;;0.98;;
33076;SDS011;38790;51.964;5.924;2022-09-27T13:45:37;1.40;;;0.82;;
33076;SDS011;38790;51.964;5.924;2022-09-27T13:48:08;2.90;;;0.90;;
33076;SDS011;38790;51.964;5.924;2022-09-27T13:50:46;3.03;;;0.73;;
33076;SDS011;38790;51.964;5.924;2022-09-27T13:55:59;3.58;;;1.25;;
33076;SDS011;38790;51.964;5.924;2022-09-27T14:01:29;4.28;;;1.75;;
33076;SDS011;38790;51.964;5.924;2022-09-27T14:03:59;7.23;;;0.93;;
33076;SDS011;38790;51.964;5.924;2022-09-27T14:06:35;5.15;;;1.13;;
33076;SDS011;38790;51.964;5.924;2022-09-27T14:09:19;1.38;;;1.00;;
33076;SDS011;38790;51.964;5.924;2022-09-27T14:12:08;5.68;;;1.65;;
33076;SDS011;38790;51.964;5.924;2022-09-27T14:15:05;4.00;;;1.00;;
33076;SDS011;38790;51.964;5.924;2022-09-27T14:17:33;4.82;;;0.90;;
33076;SDS011;38790;51.964;5.924;2022-09-27T14:19:59;4.65;;;1.17;;
33076;SDS011;38790;51.964;5.924;2022-09-27T14:22:27;3.20;;;1.10;;
33076;SDS011;38790;51.964;5.924;2022-09-27T14:24:54;4.20;;;0.77;;
33076;SDS011;38790;51.964;5.924;2022-09-27T14:27:21;1.98;;;1.15;;
33076;SDS011;38790;51.964;5.924;2022-09-27T14:29:56;2.30;;;1.10;;
33076;SDS011;38790;51.964;5.924;2022-09-27T14:32:28;4.13;;;0.82;;
33076;SDS011;38790;51.964;5.924;2022-09-27T14:37:54;3.92;;;0.95;;
33076;SDS011;38790;51.964;5.924;2022-09-27T14:40:21;6.05;;;0.90;;
33076;SDS011;38790;51.964;5.924;2022-09-27T14:42:51;3.03;;;0.95;;
33076;SDS011;38790;51.964;5.924;2022-09-27T14:45:26;2.15;;;1.10;;
33076;SDS011;38790;51.964;5.924;2022-09-27T14:48:01;1.73;;;0.90;;
33076;SDS011;38790;51.964;5.924;2022-09-27T14:50:43;4.18;;;1.00;;
33076;SDS011;38790;51.964;5.924;2022-09-27T14:53:26;2.55;;;0.80;;
33076;SDS011;38790;51.964;5.924;2022-09-27T14:55:54;2.60;;;0.80;;
33076;SDS011;38790;51.964;5.924;2022-09-27T14:58:22;3.03;;;1.25;;
33076;SDS011;38790;51.964;5.924;2022-09-27T15:00:48;2.30;;;0.93;;
33076;SDS011;38790;51.964;5.924;2022-09-27T15:03:19;3.28;;;0.82;;
33076;SDS011;38790;51.964;5.924;2022-09-27T15:05:49;2.35;;;0.75;;
33076;SDS011;38790;51.964;5.924;2022-09-27T15:08:16;2.63;;;0.95;;
33076;SDS011;38790;51.964;5.924;2022-09-27T15:10:44;2.30;;;0.93;;
33076;SDS011;38790;51.964;5.924;2022-09-27T15:13:13;2.50;;;0.95;;
33076;SDS011;38790;51.964;5.924;2022-09-27T15:15:43;2.85;;;0.82;;
33076;SDS011;38790;51.964;5.924;2022-09-27T15:18:29;2.03;;;0.80;;
33076;SDS011;38790;51.964;5.924;2022-09-27T15:20:57;1.67;;;0.75;;
33076;SDS011;38790;51.964;5.924;2022-09-27T15:23:28;1.75;;;1.02;;
33076;SDS011;38790;51.964;5.924;2022-09-27T15:25:56;1.75;;;0.88;;
33076;SDS011;38790;51.964;5.924;2022-09-27T15:28:44;4.40;;;1.20;;
33076;SDS011;38790;51.964;5.924;2022-09-27T15:31:14;2.60;;;0.82;;
33076;SDS011;38790;51.964;5.924;2022-09-27T15:33:41;5.53;;;1.20;;
33076;SDS011;38790;51.964;5.924;2022-09-27T15:36:16;2.75;;;1.27;;
33076;SDS011;38790;51.964;5.924;2022-09-27T15:39:17;2.35;;;1.00;;
33076;SDS011;38790;51.964;5.924;2022-09-27T15:44:45;3.28;;;1.30;;
33076;SDS011;38790;51.964;5.924;2022-09-27T15:55:15;6.10;;;1.23;;
33076;SDS011;38790;51.964;5.924;2022-09-27T15:57:51;2.05;;;1.30;;
33076;SDS011;38790;51.964;5.924;2022-09-27T16:02:50;4.55;;;1.45;;
33076;SDS011;38790;51.964;5.924;2022-09-27T16:05:17;1.92;;;1.20;;
33076;SDS011;38790;51.964;5.924;2022-09-27T16:07:43;6.47;;;1.58;;
33076;SDS011;38790;51.964;5.924;2022-09-27T16:10:13;4.80;;;1.85;;
33076;SDS011;38790;51.964;5.924;2022-09-27T16:12:41;8.63;;;1.83;;
33076;SDS011;38790;51.964;5.924;2022-09-27T16:15:09;3.40;;;1.70;;
33076;SDS011;38790;51.964;5.924;2022-09-27T16:17:36;3.85;;;2.10;;
33076;SDS011;38790;51.964;5.924;2022-09-27T16:20:04;2.15;;;1.70;;
33076;SDS011;38790;51.964;5.924;2022-09-27T16:22:30;6.47;;;2.25;;
33076;SDS011;38790;51.964;5.924;2022-09-27T16:24:56;4.80;;;2.00;;
33076;SDS011;38790;51.964;5.924;2022-09-27T16:27:23;4.93;;;2.22;;
33076;SDS011;38790;51.964;5.924;2022-09-27T16:29:52;3.78;;;2.28;;
33076;SDS011;38790;51.964;5.924;2022-09-27T16:32:19;6.93;;;2.40;;
33076;SDS011;38790;51.964;5.924;2022-09-27T16:34:46;6.30;;;2.60;;
33076;SDS011;38790;51.964;5.924;2022-09-27T16:37:12;10.25;;;2.45;;
33076;SDS011;38790;51.964;5.924;2022-09-27T16:39:38;4.43;;;2.28;;
33076;SDS011;38790;51.964;5.924;2022-09-27T16:42:04;8.68;;;2.45;;
33076;SDS011;38790;51.964;5.924;2022-09-27T16:44:32;9.50;;;2.95;;
33076;SDS011;38790;51.964;5.924;2022-09-27T16:47:03;5.90;;;2.50;;
33076;SDS011;38790;51.964;5.924;2022-09-27T16:49:31;4.78;;;2.10;;
33076;SDS011;38790;51.964;5.924;2022-09-27T16:52:15;12.10;;;2.80;;
33076;SDS011;38790;51.964;5.924;2022-09-27T16:54:41;5.78;;;2.50;;
33076;SDS011;38790;51.964;5.924;2022-09-27T16:57:07;10.32;;;2.38;;
33076;SDS011;38790;51.964;5.924;2022-09-27T16:59:34;8.20;;;1.63;;
33076;SDS011;38790;51.964;5.924;2022-09-27T17:02:00;6.07;;;1.60;;
33076;SDS011;38790;51.964;5.924;2022-09-27T17:04:29;3.63;;;1.63;;
33076;SDS011;38790;51.964;5.924;2022-09-27T17:06:56;7.93;;;1.80;;
33076;SDS011;38790;51.964;5.924;2022-09-27T17:09:23;4.90;;;1.63;;
33076;SDS011;38790;51.964;5.924;2022-09-27T17:11:49;5.03;;;2.13;;
33076;SDS011;38790;51.964;5.924;2022-09-27T17:14:16;6.53;;;1.98;;
33076;SDS011;38790;51.964;5.924;2022-09-27T17:16:42;7.47;;;1.63;;
33076;SDS011;38790;51.964;5.924;2022-09-27T17:19:10;3.20;;;1.77;;
33076;SDS011;38790;51.964;5.924;2022-09-27T17:21:36;9.40;;;1.85;;
33076;SDS011;38790;51.964;5.924;2022-09-27T17:24:02;5.68;;;1.92;;
33076;SDS011;38790;51.964;5.924;2022-09-27T17:26:29;5.03;;;1.90;;
33076;SDS011;38790;51.964;5.924;2022-09-27T17:28:56;6.13;;;1.70;;
33076;SDS011;38790;51.964;5.924;2022-09-27T17:31:25;6.47;;;1.65;;
33076;SDS011;38790;51.964;5.924;2022-09-27T17:33:53;7.95;;;1.85;;
33076;SDS011;38790;51.964;5.924;2022-09-27T17:36:20;3.63;;;1.70;;
33076;SDS011;38790;51.964;5.924;2022-09-27T17:38:49;7.88;;;1.83;;
33076;SDS011;38790;51.964;5.924;2022-09-27T17:41:17;7.63;;;1.50;;
33076;SDS011;38790;51.964;5.924;2022-09-27T17:43:50;4.30;;;1.67;;
33076;SDS011;38790;51.964;5.924;2022-09-27T17:46:18;2.80;;;1.23;;
33076;SDS011;38790;51.964;5.924;2022-09-27T17:48:46;5.30;;;1.98;;